Windhoek — 3FWJ3 — position and weather

sailwx.info

Track history (hours):
 
Tides and Currents Weather Stations Pressure Air Temp Water Temp Dewpoint Dewpoint Depression Visibility Wind Speed Wind Dir Waves Ship Positions

Windhoek

Last reported at 2016-Dec-04 01:16 UTC. Time now 2016-Dec-06 21:54 UTC.
Position N 28°04' W 013°34'.

Length 172 m; draft 9.4 m.

Type: Ship (hazmat cat C). MMSI: 370431000.

Date/timePositionNaut miles runAvg speedWind from/ knotsBaromVisibWave heightAir tempDewpointWater temp
2016-Dec-04 01:16N 28°04' W 013°34'27814.8
2016-Dec-03 06:24N 31°59' W 010°41'1214.4
2016-Dec-03 05:33N 32°09' W 010°33'1414.3
2016-Dec-03 04:33N 32°21' W 010°24'1414.4
2016-Dec-03 03:33N 32°34' W 010°15'1614.5
2016-Dec-03 02:26N 32°47' W 010°04'29814.8
2016-Dec-02 06:20N 35°59' W 005°29'7 0.2
2016-Dec-01 00:24N 36°05' W 005°25'0 0.0
2016-Nov-30 03:30N 36°05' W 005°25'0 0.0
2016-Nov-30 00:06N 36°05' W 005°25'0 0.2
2016-Nov-29 23:18N 36°05' W 005°25'3 3.3
2016-Nov-29 22:27N 36°03' W 005°22'6 6.5
2016-Nov-29 21:33N 35°58' W 005°26'9 0.5
2016-Nov-29 02:32N 35°53' W 005°35'4 1.0
2016-Nov-28 22:12N 35°57' W 005°34'5 8.0
2016-Nov-28 21:33N 35°60' W 005°28'9 8.8
2016-Nov-28 20:32N 36°03' W 005°18'120 5.2
2016-Nov-27 21:26N 36°21' W 002°51'11015.2
2016-Nov-27 14:13N 37°19' W 000°55'1115.4
2016-Nov-27 13:32N 37°26' W 000°45'1515.4
2016-Nov-27 12:33N 37°36' W 000°31'1616.2
2016-Nov-27 11:33N 37°50' W 000°20'9513.4
2016-Nov-27 04:30N 39°24' W 000°15'4 4.0
2016-Nov-27 03:32N 39°27' W 000°19'0 0.0
2016-Nov-27 02:32N 39°27' W 000°19'0 0.0
2016-Nov-27 01:33N 39°27' W 000°19'0 0.0
2016-Nov-27 00:34N 39°27' W 000°19'0 0.0
2016-Nov-26 23:31N 39°27' W 000°19'0 0.0
2016-Nov-26 22:31N 39°27' W 000°19'0 0.0
2016-Nov-26 21:33N 39°27' W 000°19'0 0.0
2016-Nov-26 20:33N 39°27' W 000°19'0 0.0
2016-Nov-26 19:34N 39°27' W 000°19'0 0.0
2016-Nov-26 18:31N 39°27' W 000°19'0 0.0
2016-Nov-26 17:31N 39°27' W 000°19'0 0.0
2016-Nov-26 16:31N 39°27' W 000°19'0 0.0
2016-Nov-26 15:31N 39°27' W 000°19'0 0.0
2016-Nov-26 14:31N 39°27' W 000°19'0 0.0
2016-Nov-26 13:31N 39°27' W 000°19'0 0.0
2016-Nov-26 12:31N 39°27' W 000°19'0 0.0
2016-Nov-26 11:31N 39°27' W 000°19'0 0.0
2016-Nov-26 10:31N 39°27' W 000°19'0 0.0
2016-Nov-26 09:31N 39°27' W 000°19'0 0.0
2016-Nov-26 08:31N 39°27' W 000°19'0 0.0
2016-Nov-26 07:31N 39°27' W 000°19'0 0.0
2016-Nov-26 06:31N 39°27' W 000°19'0 0.0
2016-Nov-26 05:31N 39°27' W 000°19'0 0.0
2016-Nov-26 04:31N 39°27' W 000°19'0 0.0
2016-Nov-26 03:31N 39°27' W 000°19'0 0.0
2016-Nov-26 02:31N 39°27' W 000°19'0 0.0
2016-Nov-26 01:31N 39°27' W 000°19'0 0.0
2016-Nov-26 00:31N 39°27' W 000°19'0 0.0
2016-Nov-25 23:31N 39°27' W 000°19'0 0.0
2016-Nov-25 22:31N 39°27' W 000°19'0 0.0
2016-Nov-25 21:31N 39°27' W 000°19'0 0.0
2016-Nov-25 20:31N 39°27' W 000°19'0 0.0
2016-Nov-25 19:31N 39°27' W 000°19'4 3.8
2016-Nov-25 18:33N 39°25' W 000°15'6913.8
2016-Nov-25 13:32N 39°57' E 001°05'1616.2
2016-Nov-25 12:33N 40°10' E 001°16'1616.3
2016-Nov-25 11:33N 40°24' E 001°29'1615.7
2016-Nov-25 10:33N 40°37' E 001°40'1716.6
2016-Nov-25 09:33N 40°51' E 001°52'1616.5
2016-Nov-25 08:33N 41°04' E 002°05'2 0.1
2016-Nov-24 03:26N 41°05' E 002°07'1315.0
2016-Nov-24 02:33N 40°53' E 001°59'1514.7
2016-Nov-24 01:33N 40°40' E 001°49'  
Track history (hours):
 
Tides and Currents Weather Stations Pressure Air Temp Water Temp Dewpoint Dewpoint Depression Visibility Wind Speed Wind Dir Waves Ship Positions

Windhoek

Last reported at 2016-Dec-04 01:16 UTC. Time now 2016-Dec-06 21:54 UTC.
Position N 28°04' W 013°34'.

Length 172 m; draft 9.4 m.

Type: Ship (hazmat cat C). MMSI: 370431000.

Date/timePositionNaut miles runAvg speedWind from/ knotsBaromVisibWave heightAir tempDewpointWater temp
2016-Dec-04 01:16N 28°04' W 013°34'27814.8
2016-Dec-03 06:24N 31°59' W 010°41'1214.4
2016-Dec-03 05:33N 32°09' W 010°33'1414.3
2016-Dec-03 04:33N 32°21' W 010°24'1414.4
2016-Dec-03 03:33N 32°34' W 010°15'1614.5
2016-Dec-03 02:26N 32°47' W 010°04'29814.8
2016-Dec-02 06:20N 35°59' W 005°29'7 0.2
2016-Dec-01 00:24N 36°05' W 005°25'0 0.0
2016-Nov-30 03:30N 36°05' W 005°25'0 0.0
2016-Nov-30 00:06N 36°05' W 005°25'0 0.2
2016-Nov-29 23:18N 36°05' W 005°25'3 3.3
2016-Nov-29 22:27N 36°03' W 005°22'6 6.5
2016-Nov-29 21:33N 35°58' W 005°26'9 0.5
2016-Nov-29 02:32N 35°53' W 005°35'4 1.0
2016-Nov-28 22:12N 35°57' W 005°34'5 8.0
2016-Nov-28 21:33N 35°60' W 005°28'9 8.8
2016-Nov-28 20:32N 36°03' W 005°18'120 5.2
2016-Nov-27 21:26N 36°21' W 002°51'11015.2
2016-Nov-27 14:13N 37°19' W 000°55'1115.4
2016-Nov-27 13:32N 37°26' W 000°45'1515.4
2016-Nov-27 12:33N 37°36' W 000°31'1616.2
2016-Nov-27 11:33N 37°50' W 000°20'9513.4
2016-Nov-27 04:30N 39°24' W 000°15'4 4.0
2016-Nov-27 03:32N 39°27' W 000°19'0 0.0
2016-Nov-27 02:32N 39°27' W 000°19'0 0.0
2016-Nov-27 01:33N 39°27' W 000°19'0 0.0
2016-Nov-27 00:34N 39°27' W 000°19'0 0.0
2016-Nov-26 23:31N 39°27' W 000°19'0 0.0
2016-Nov-26 22:31N 39°27' W 000°19'0 0.0
2016-Nov-26 21:33N 39°27' W 000°19'0 0.0
2016-Nov-26 20:33N 39°27' W 000°19'0 0.0
2016-Nov-26 19:34N 39°27' W 000°19'0 0.0
2016-Nov-26 18:31N 39°27' W 000°19'0 0.0
2016-Nov-26 17:31N 39°27' W 000°19'0 0.0
2016-Nov-26 16:31N 39°27' W 000°19'0 0.0
2016-Nov-26 15:31N 39°27' W 000°19'0 0.0
2016-Nov-26 14:31N 39°27' W 000°19'0 0.0
2016-Nov-26 13:31N 39°27' W 000°19'0 0.0
2016-Nov-26 12:31N 39°27' W 000°19'0 0.0
2016-Nov-26 11:31N 39°27' W 000°19'0 0.0
2016-Nov-26 10:31N 39°27' W 000°19'0 0.0
2016-Nov-26 09:31N 39°27' W 000°19'0 0.0
2016-Nov-26 08:31N 39°27' W 000°19'0 0.0
2016-Nov-26 07:31N 39°27' W 000°19'0 0.0
2016-Nov-26 06:31N 39°27' W 000°19'0 0.0
2016-Nov-26 05:31N 39°27' W 000°19'0 0.0
2016-Nov-26 04:31N 39°27' W 000°19'0 0.0
2016-Nov-26 03:31N 39°27' W 000°19'0 0.0
2016-Nov-26 02:31N 39°27' W 000°19'0 0.0
2016-Nov-26 01:31N 39°27' W 000°19'0 0.0
2016-Nov-26 00:31N 39°27' W 000°19'0 0.0
2016-Nov-25 23:31N 39°27' W 000°19'0 0.0
2016-Nov-25 22:31N 39°27' W 000°19'0 0.0
2016-Nov-25 21:31N 39°27' W 000°19'0 0.0
2016-Nov-25 20:31N 39°27' W 000°19'0 0.0
2016-Nov-25 19:31N 39°27' W 000°19'4 3.8
2016-Nov-25 18:33N 39°25' W 000°15'6913.8
2016-Nov-25 13:32N 39°57' E 001°05'1616.2
2016-Nov-25 12:33N 40°10' E 001°16'1616.3
2016-Nov-25 11:33N 40°24' E 001°29'1615.7
2016-Nov-25 10:33N 40°37' E 001°40'1716.6
2016-Nov-25 09:33N 40°51' E 001°52'1616.5
2016-Nov-25 08:33N 41°04' E 002°05'2 0.1
2016-Nov-24 03:26N 41°05' E 002°07'1315.0
2016-Nov-24 02:33N 40°53' E 001°59'1514.7
2016-Nov-24 01:33N 40°40' E 001°49'  

Dump ship's entire track history